createdAt,value
2022-10-30T00:00:48.863Z,38.17
2022-10-30T00:03:16.371Z,39.63
2022-10-30T00:05:48.286Z,37.65
2022-10-30T00:08:18.049Z,37.72
2022-10-30T00:10:45.891Z,39.50
2022-10-30T00:13:14.115Z,38.65
2022-10-30T00:15:47.214Z,35.60
2022-10-30T00:18:14.212Z,38.08
2022-10-30T00:20:41.045Z,37.28
2022-10-30T00:23:07.804Z,37.20
2022-10-30T00:25:36.326Z,39.00
2022-10-30T00:28:05.242Z,39.10
2022-10-30T00:30:32.518Z,37.15
2022-10-30T00:32:59.721Z,39.63
2022-10-30T00:35:26.770Z,38.88
2022-10-30T00:37:53.909Z,38.40
2022-10-30T00:40:20.825Z,41.25
2022-10-30T00:42:48.381Z,39.88
2022-10-30T00:45:17.265Z,41.40
2022-10-30T00:47:59.450Z,41.63
2022-10-30T00:50:32.214Z,43.55
2022-10-30T00:53:11.867Z,42.03
2022-10-30T00:56:07.522Z,39.63
2022-10-30T00:58:44.968Z,40.15
2022-10-30T01:01:17.933Z,41.35
2022-10-30T01:03:46.266Z,39.45
2022-10-30T01:06:15.993Z,37.88
2022-10-30T01:08:43.853Z,40.97
2022-10-30T01:11:12.079Z,38.92
2022-10-30T01:13:42.921Z,39.28
2022-10-30T01:16:44.535Z,41.95
2022-10-30T01:19:29.883Z,39.80
2022-10-30T01:22:30.705Z,40.00
2022-10-30T01:25:34.547Z,41.20
2022-10-30T01:28:26.183Z,42.33
2022-10-30T01:30:56.947Z,40.85
2022-10-30T01:33:33.415Z,39.92
2022-10-30T01:36:12.749Z,39.92
2022-10-30T01:38:47.709Z,40.63
2022-10-30T01:41:14.898Z,38.58
2022-10-30T01:43:47.257Z,40.00
2022-10-30T01:46:23.065Z,40.20
2022-10-30T01:49:12.326Z,38.50
2022-10-30T01:51:56.423Z,39.47
2022-10-30T01:54:26.127Z,40.47
2022-10-30T01:57:17.316Z,39.35
2022-10-30T02:00:05.353Z,38.88
2022-10-30T02:02:40.041Z,38.92
2022-10-30T02:05:12.128Z,39.70
2022-10-30T02:07:39.004Z,41.10
2022-10-30T02:10:08.318Z,39.05
2022-10-30T02:12:35.234Z,39.17
2022-10-30T02:15:02.428Z,39.35
2022-10-30T02:17:29.498Z,39.38
2022-10-30T02:19:57.027Z,40.58
2022-10-30T02:22:25.128Z,40.30
2022-10-30T02:24:52.400Z,39.03
2022-10-30T02:27:22.463Z,39.72
2022-10-30T02:29:49.377Z,39.45
2022-10-30T02:32:16.249Z,36.38
2022-10-30T02:34:44.391Z,38.53
2022-10-30T02:37:11.340Z,40.50
2022-10-30T02:39:39.618Z,41.35
2022-10-30T02:42:07.570Z,40.88
2022-10-30T02:44:34.382Z,41.22
2022-10-30T02:47:01.312Z,42.25
2022-10-30T02:49:28.132Z,41.92
2022-10-30T02:51:54.980Z,41.60
2022-10-30T02:54:21.854Z,42.65
2022-10-30T02:56:49.374Z,43.95
2022-10-30T02:59:16.204Z,42.53
2022-10-30T03:01:43.671Z,42.67
2022-10-30T03:04:10.645Z,42.45
2022-10-30T03:06:37.513Z,41.90
2022-10-30T03:09:05.583Z,43.55
2022-10-30T03:11:34.126Z,43.40
2022-10-30T03:14:00.907Z,43.72
2022-10-30T03:16:29.496Z,42.95
2022-10-30T03:18:57.034Z,43.72
2022-10-30T03:21:25.220Z,42.95
2022-10-30T03:23:52.715Z,43.45
2022-10-30T03:26:20.239Z,40.58
2022-10-30T03:29:03.400Z,42.17
2022-10-30T03:31:31.193Z,44.75
2022-10-30T03:34:14.407Z,44.38
2022-10-30T03:36:42.143Z,41.63
2022-10-30T03:39:09.082Z,43.78
2022-10-30T03:41:36.677Z,43.17
2022-10-30T03:44:03.582Z,43.58
2022-10-30T03:46:31.519Z,42.70
2022-10-30T03:49:12.491Z,40.63
2022-10-30T03:51:39.418Z,42.22
2022-10-30T03:54:06.569Z,40.17
2022-10-30T03:56:33.444Z,42.22
2022-10-30T03:59:02.023Z,42.55
2022-10-30T04:01:30.096Z,39.90
2022-10-30T04:03:57.392Z,41.50
2022-10-30T04:06:25.414Z,40.30
2022-10-30T04:08:54.938Z,40.53
2022-10-30T04:11:22.032Z,41.35
2022-10-30T04:13:48.876Z,40.90
2022-10-30T04:16:15.671Z,41.83
2022-10-30T04:18:43.640Z,41.72
2022-10-30T04:21:11.858Z,43.30
2022-10-30T04:23:39.243Z,43.08
2022-10-30T04:26:06.206Z,44.17
2022-10-30T04:28:35.399Z,42.38
2022-10-30T04:31:04.087Z,44.65
2022-10-30T04:33:32.585Z,45.90
2022-10-30T04:36:00.318Z,44.85
2022-10-30T04:38:27.225Z,44.60
2022-10-30T04:40:56.038Z,44.58
2022-10-30T04:43:28.396Z,42.95
2022-10-30T04:45:55.209Z,45.53
2022-10-30T04:48:22.011Z,44.55
2022-10-30T04:50:49.064Z,44.45
2022-10-30T04:53:22.559Z,44.13
2022-10-30T04:55:55.543Z,45.03
2022-10-30T04:58:22.506Z,43.95
2022-10-30T05:01:03.385Z,45.88
2022-10-30T05:03:31.120Z,43.90
2022-10-30T05:06:04.363Z,43.63
2022-10-30T05:08:31.366Z,44.50
2022-10-30T05:11:05.162Z,45.05
2022-10-30T05:13:32.206Z,46.17
2022-10-30T05:15:58.991Z,44.10
2022-10-30T05:18:25.818Z,45.53
2022-10-30T05:20:53.087Z,45.92
2022-10-30T05:23:19.980Z,45.10
2022-10-30T05:25:46.951Z,45.30
2022-10-30T05:28:16.119Z,40.13
2022-10-30T05:30:52.349Z,42.08
2022-10-30T05:33:37.973Z,45.33
2022-10-30T05:36:05.755Z,45.75
2022-10-30T05:38:32.543Z,47.60
2022-10-30T05:40:59.983Z,45.33
2022-10-30T05:43:26.807Z,46.15
2022-10-30T05:45:53.667Z,45.40
2022-10-30T05:48:20.575Z,48.05
2022-10-30T05:50:47.614Z,46.90
2022-10-30T05:53:27.198Z,47.83
2022-10-30T05:55:59.997Z,47.50
2022-10-30T05:58:31.302Z,45.65
2022-10-30T06:01:06.072Z,48.05
2022-10-30T06:03:40.991Z,46.17
2022-10-30T06:06:07.968Z,48.58
2022-10-30T06:08:35.514Z,47.15
2022-10-30T06:11:12.348Z,46.40
2022-10-30T06:13:41.327Z,47.63
2022-10-30T06:16:12.471Z,46.60
2022-10-30T06:19:00.262Z,45.60
2022-10-30T06:21:28.696Z,45.78
2022-10-30T06:24:12.818Z,46.65
2022-10-30T06:27:02.937Z,45.03
2022-10-30T06:29:30.070Z,42.63
2022-10-30T06:31:58.695Z,44.10
2022-10-30T06:34:27.802Z,43.38
2022-10-30T06:36:54.982Z,43.60
2022-10-30T06:39:22.873Z,41.70
2022-10-30T06:42:12.492Z,43.45
2022-10-30T06:44:49.099Z,43.20
2022-10-30T06:47:16.303Z,42.10
2022-10-30T06:49:43.129Z,41.50
2022-10-30T06:52:10.054Z,41.13
2022-10-30T06:54:37.573Z,40.30
2022-10-30T06:57:40.054Z,39.50
2022-10-30T07:00:25.376Z,41.45
2022-10-30T07:03:10.831Z,41.85
2022-10-30T07:05:39.199Z,41.63
2022-10-30T07:08:06.000Z,40.58
2022-10-30T07:10:33.116Z,40.67
2022-10-30T07:13:18.622Z,40.03
2022-10-30T07:15:54.458Z,41.58
2022-10-30T07:18:26.344Z,42.28
2022-10-30T07:20:57.382Z,40.88
2022-10-30T07:23:25.165Z,40.40
2022-10-30T07:25:58.357Z,40.47
2022-10-30T07:28:33.861Z,41.53
2022-10-30T07:31:28.931Z,39.00
2022-10-30T07:34:38.343Z,37.53
2022-10-30T07:37:25.952Z,41.53
2022-10-30T07:39:59.751Z,41.42
2022-10-30T07:42:56.491Z,40.08
2022-10-30T07:45:41.303Z,40.17
2022-10-30T07:48:26.750Z,40.97
2022-10-30T07:51:02.251Z,39.28
2022-10-30T07:53:29.960Z,41.33
2022-10-30T07:55:58.038Z,39.60
2022-10-30T07:59:02.964Z,39.72
2022-10-30T08:01:52.875Z,39.05
2022-10-30T08:04:39.972Z,40.28
2022-10-30T08:07:47.133Z,39.63
2022-10-30T08:10:15.288Z,41.40
2022-10-30T08:12:44.532Z,41.28
2022-10-30T08:15:12.259Z,40.65
2022-10-30T08:17:46.883Z,40.50
2022-10-30T08:20:15.750Z,40.45
2022-10-30T08:22:54.046Z,40.30
2022-10-30T08:25:27.616Z,40.25
2022-10-30T08:28:04.020Z,41.22
2022-10-30T08:30:37.493Z,40.42
2022-10-30T08:33:08.128Z,41.10
2022-10-30T08:35:56.771Z,41.50
2022-10-30T08:38:24.255Z,39.55
2022-10-30T08:41:05.766Z,39.80
2022-10-30T08:43:38.861Z,40.13
2022-10-30T08:46:05.848Z,40.67
2022-10-30T08:48:32.742Z,39.03
2022-10-30T08:51:01.338Z,38.38
2022-10-30T08:53:34.299Z,38.85
2022-10-30T08:56:03.688Z,39.28
2022-10-30T08:58:42.334Z,38.72
2022-10-30T09:01:09.472Z,39.25
2022-10-30T09:03:54.814Z,38.72
2022-10-30T09:06:47.576Z,38.42
2022-10-30T09:09:32.981Z,37.83
2022-10-30T09:12:02.535Z,37.92
2022-10-30T09:14:34.161Z,39.33
2022-10-30T09:17:01.008Z,38.08
2022-10-30T09:19:29.118Z,36.78
2022-10-30T09:21:58.305Z,35.85
2022-10-30T09:24:25.188Z,34.47
2022-10-30T09:26:51.983Z,34.63
2022-10-30T09:29:26.079Z,34.92
2022-10-30T09:32:10.562Z,35.67
2022-10-30T09:34:48.304Z,35.20
2022-10-30T09:37:24.585Z,35.05
2022-10-30T09:39:55.262Z,34.80
2022-10-30T09:42:46.928Z,36.55
2022-10-30T09:45:29.625Z,34.85
2022-10-30T09:48:19.495Z,37.30
2022-10-30T09:51:13.821Z,36.00
2022-10-30T09:54:10.547Z,33.53
2022-10-30T09:57:12.625Z,35.88
2022-10-30T10:00:13.161Z,34.80
2022-10-30T10:03:19.886Z,33.78
2022-10-30T10:06:11.559Z,32.85
2022-10-30T10:09:01.043Z,31.10
2022-10-30T10:11:58.934Z,30.88
2022-10-30T10:14:32.547Z,30.90
2022-10-30T10:17:02.985Z,31.25
2022-10-30T10:19:38.663Z,31.63
2022-10-30T10:22:22.882Z,30.35
2022-10-30T10:24:50.659Z,29.88
2022-10-30T10:27:32.526Z,27.88
2022-10-30T10:30:02.993Z,28.23
2022-10-30T10:32:51.588Z,26.88
2022-10-30T10:35:24.773Z,29.77
2022-10-30T10:38:13.561Z,26.75
2022-10-30T10:41:03.286Z,25.23
2022-10-30T10:43:54.864Z,25.75
2022-10-30T10:46:36.864Z,27.45
2022-10-30T10:49:31.578Z,26.02
2022-10-30T10:52:07.177Z,24.80
2022-10-30T10:54:46.205Z,23.77
2022-10-30T10:57:27.626Z,23.90
2022-10-30T11:00:23.174Z,22.85
2022-10-30T11:03:00.392Z,22.23
2022-10-30T11:05:43.988Z,22.60
2022-10-30T11:08:17.231Z,20.25
2022-10-30T11:10:45.937Z,20.38
2022-10-30T11:13:14.731Z,22.20
2022-10-30T11:15:58.257Z,19.63
2022-10-30T11:18:25.179Z,19.77
2022-10-30T11:21:04.378Z,22.20
2022-10-30T11:23:36.008Z,20.85
2022-10-30T11:26:03.398Z,20.27
2022-10-30T11:28:41.936Z,18.52
2022-10-30T11:31:18.875Z,18.70
2022-10-30T11:33:45.752Z,19.95
2022-10-30T11:36:16.263Z,19.98
2022-10-30T11:38:43.085Z,19.90
2022-10-30T11:41:13.382Z,21.65
2022-10-30T11:43:41.685Z,20.52
2022-10-30T11:46:21.855Z,19.73
2022-10-30T11:48:54.992Z,20.45
2022-10-30T11:51:47.807Z,18.30
2022-10-30T11:54:21.558Z,22.90
2022-10-30T11:56:50.127Z,21.70
2022-10-30T11:59:22.900Z,20.38
2022-10-30T12:02:21.182Z,19.25
2022-10-30T12:04:49.619Z,20.67
2022-10-30T12:07:34.908Z,19.25
2022-10-30T12:10:03.123Z,17.73
2022-10-30T12:12:36.163Z,17.48
2022-10-30T12:15:21.419Z,18.42
2022-10-30T12:17:58.592Z,19.90
2022-10-30T12:20:26.825Z,21.48
2022-10-30T12:22:54.392Z,20.90
2022-10-30T12:25:25.671Z,21.67
2022-10-30T12:28:01.160Z,22.17
2022-10-30T12:30:32.833Z,20.90
2022-10-30T12:33:13.955Z,21.63
2022-10-30T12:36:12.205Z,20.05
2022-10-30T12:38:58.345Z,22.30
2022-10-30T12:41:29.605Z,21.92
2022-10-30T12:44:18.766Z,21.70
2022-10-30T12:46:55.924Z,32.08
2022-10-30T12:49:39.866Z,31.67
2022-10-30T12:52:34.315Z,26.75
2022-10-30T12:55:04.147Z,21.63
2022-10-30T12:57:41.385Z,19.05
2022-10-30T13:00:16.832Z,18.80
2022-10-30T13:03:21.553Z,20.52
2022-10-30T13:05:59.767Z,20.23
2022-10-30T13:08:53.455Z,21.55
2022-10-30T13:11:39.341Z,23.13
2022-10-30T13:14:13.389Z,23.95
2022-10-30T13:16:40.257Z,21.65
2022-10-30T13:19:11.400Z,22.42
2022-10-30T13:21:59.456Z,22.77
2022-10-30T13:25:00.759Z,22.33
2022-10-30T13:27:54.660Z,23.27
2022-10-30T13:30:23.448Z,23.17
2022-10-30T13:33:06.587Z,22.48
2022-10-30T13:35:59.366Z,24.20
2022-10-30T13:38:46.318Z,24.08
2022-10-30T13:41:34.449Z,22.88
2022-10-30T13:44:07.651Z,23.67
2022-10-30T13:47:08.630Z,22.60
2022-10-30T13:49:41.413Z,22.98
2022-10-30T13:52:17.156Z,21.92
2022-10-30T13:54:59.242Z,22.05
2022-10-30T13:57:34.330Z,25.02
2022-10-30T14:00:07.334Z,23.05
2022-10-30T14:02:58.327Z,23.17
2022-10-30T14:05:36.841Z,23.00
2022-10-30T14:08:11.305Z,22.67
2022-10-30T14:10:45.869Z,23.40
2022-10-30T14:13:27.088Z,23.52
2022-10-30T14:16:01.148Z,24.17
2022-10-30T14:18:30.792Z,25.58
2022-10-30T14:21:18.777Z,23.92
2022-10-30T14:23:45.594Z,24.90
2022-10-30T14:26:14.350Z,25.17
2022-10-30T14:28:46.933Z,26.73
2022-10-30T14:31:16.910Z,30.58
2022-10-30T14:33:48.446Z,28.70
2022-10-30T14:36:33.691Z,27.23
2022-10-30T14:39:21.513Z,28.58
2022-10-30T14:42:03.296Z,30.77
2022-10-30T14:44:48.514Z,26.80
2022-10-30T14:47:27.102Z,27.77
2022-10-30T14:50:01.980Z,27.98
2022-10-30T14:52:41.145Z,28.65
2022-10-30T14:55:31.956Z,29.20
2022-10-30T14:58:01.977Z,27.95
2022-10-30T15:00:40.046Z,30.20
2022-10-30T15:03:15.792Z,29.63
2022-10-30T15:06:06.025Z,29.67
2022-10-30T15:08:54.949Z,31.70
2022-10-30T15:11:26.984Z,30.70
2022-10-30T15:13:58.409Z,31.40
2022-10-30T15:16:27.883Z,32.55
2022-10-30T15:19:05.224Z,31.45
2022-10-30T15:21:41.764Z,32.45
2022-10-30T15:24:20.284Z,30.42
2022-10-30T15:26:53.291Z,30.80
2022-10-30T15:29:31.382Z,30.02
2022-10-30T15:32:01.603Z,31.95
2022-10-30T15:34:30.765Z,37.20
2022-10-30T15:36:57.652Z,35.78
2022-10-30T15:39:25.433Z,35.70
2022-10-30T15:41:56.782Z,35.97
2022-10-30T15:44:27.519Z,36.88
2022-10-30T15:46:56.907Z,36.22
2022-10-30T15:49:37.945Z,43.45
2022-10-30T15:52:25.093Z,45.75
2022-10-30T15:54:57.911Z,42.38
2022-10-30T15:58:12.862Z,42.55
2022-10-30T16:00:26.873Z,43.83
2022-10-30T16:03:13.655Z,43.28
2022-10-30T16:05:40.560Z,45.90
2022-10-30T16:08:15.714Z,43.90
2022-10-30T16:10:44.482Z,40.17
2022-10-30T16:13:18.332Z,43.65
2022-10-30T16:15:49.767Z,42.05
2022-10-30T16:18:27.216Z,43.30
2022-10-30T16:21:02.982Z,43.92
2022-10-30T16:23:36.115Z,39.75
2022-10-30T16:26:02.906Z,41.60
2022-10-30T16:28:31.144Z,47.78
2022-10-30T16:31:01.661Z,50.70
2022-10-30T16:33:31.187Z,50.30
2022-10-30T16:35:59.671Z,53.33
2022-10-30T16:38:29.998Z,56.20
2022-10-30T16:40:57.217Z,54.78
2022-10-30T16:43:28.353Z,53.92
2022-10-30T16:45:57.038Z,49.80
2022-10-30T16:48:28.745Z,51.78
2022-10-30T16:51:03.691Z,54.17
2022-10-30T16:53:31.658Z,57.00
2022-10-30T16:55:59.358Z,54.30
2022-10-30T16:58:31.828Z,57.53
2022-10-30T17:01:06.936Z,57.35
2022-10-30T17:03:38.297Z,58.67
2022-10-30T17:06:07.854Z,59.78
2022-10-30T17:08:43.207Z,59.25
2022-10-30T17:11:18.784Z,59.38
2022-10-30T17:13:54.742Z,58.42
2022-10-30T17:16:27.033Z,53.67
2022-10-30T17:18:59.580Z,54.90
2022-10-30T17:21:38.303Z,56.50
2022-10-30T17:24:05.640Z,56.95
2022-10-30T17:26:39.232Z,58.28
2022-10-30T17:29:06.072Z,59.20
2022-10-30T17:31:38.819Z,61.90
2022-10-30T17:34:13.629Z,57.85
2022-10-30T17:36:43.215Z,58.35
2022-10-30T17:39:10.040Z,58.05
2022-10-30T17:41:37.545Z,59.25
2022-10-30T17:44:05.435Z,53.78
2022-10-30T17:46:32.661Z,53.65
2022-10-30T17:48:59.962Z,56.17
2022-10-30T17:51:28.324Z,55.10
2022-10-30T17:53:55.178Z,55.75
2022-10-30T17:56:28.892Z,55.40
2022-10-30T17:58:56.041Z,56.00
2022-10-30T18:01:25.244Z,56.10
2022-10-30T18:03:55.151Z,57.22
2022-10-30T18:06:24.929Z,56.70
2022-10-30T18:08:51.852Z,57.20
2022-10-30T18:11:21.067Z,57.10
2022-10-30T18:13:49.207Z,55.38
2022-10-30T18:16:18.785Z,55.03
2022-10-30T18:18:45.941Z,54.20
2022-10-30T18:21:17.920Z,56.63
2022-10-30T18:23:53.424Z,54.00
2022-10-30T18:26:25.339Z,53.08
2022-10-30T18:28:52.845Z,54.42
2022-10-30T18:31:22.064Z,52.47
2022-10-30T18:33:49.431Z,55.42
2022-10-30T18:36:18.693Z,54.78
2022-10-30T18:38:54.722Z,53.10
2022-10-30T18:41:35.568Z,51.10
2022-10-30T18:44:02.889Z,52.13
2022-10-30T18:46:31.452Z,54.60
2022-10-30T18:48:58.954Z,50.05
2022-10-30T18:51:27.493Z,53.60
2022-10-30T18:53:57.160Z,54.88
2022-10-30T18:56:26.895Z,50.80
2022-10-30T18:58:58.690Z,49.50
2022-10-30T19:01:34.146Z,51.40
2022-10-30T19:04:02.383Z,54.42
2022-10-30T19:06:29.636Z,56.22
2022-10-30T19:08:56.468Z,57.17
2022-10-30T19:11:25.333Z,59.28
2022-10-30T19:13:53.777Z,58.33
2022-10-30T19:16:21.733Z,53.85
2022-10-30T19:18:48.737Z,53.05
2022-10-30T19:21:21.269Z,54.85
2022-10-30T19:23:48.604Z,55.03
2022-10-30T19:26:16.240Z,59.95
2022-10-30T19:28:44.393Z,59.78
2022-10-30T19:31:16.080Z,59.92
2022-10-30T19:33:42.975Z,60.88
2022-10-30T19:36:33.846Z,60.10
2022-10-30T19:39:08.338Z,58.55
2022-10-30T19:41:36.225Z,61.28
2022-10-30T19:44:03.158Z,58.88
2022-10-30T19:46:29.972Z,58.60
2022-10-30T19:48:58.127Z,59.90
2022-10-30T19:51:25.655Z,60.05
2022-10-30T19:53:53.845Z,59.53
2022-10-30T19:56:21.692Z,59.33
2022-10-30T19:58:48.840Z,58.65
2022-10-30T20:01:16.170Z,56.35
2022-10-30T20:03:43.377Z,56.13
2022-10-30T20:06:14.051Z,58.40
2022-10-30T20:08:41.221Z,58.63
2022-10-30T20:11:08.385Z,59.05
2022-10-30T20:13:37.252Z,56.00
2022-10-30T20:16:05.400Z,60.28
2022-10-30T20:18:35.095Z,56.70
2022-10-30T20:21:13.496Z,58.83
2022-10-30T20:23:40.265Z,60.03
2022-10-30T20:26:26.426Z,58.03
2022-10-30T20:28:53.621Z,56.50
2022-10-30T20:31:20.935Z,56.90
2022-10-30T20:33:47.826Z,58.53
2022-10-30T20:36:14.684Z,57.50
2022-10-30T20:38:41.622Z,56.65
2022-10-30T20:41:21.149Z,59.13
2022-10-30T20:43:50.063Z,58.35
2022-10-30T20:46:17.704Z,58.17
2022-10-30T20:48:44.513Z,59.00
2022-10-30T20:51:11.739Z,58.95
2022-10-30T20:53:38.972Z,57.05
2022-10-30T20:56:06.512Z,58.00
2022-10-30T20:58:33.433Z,56.80
2022-10-30T21:01:00.751Z,56.08
2022-10-30T21:03:28.014Z,56.17
2022-10-30T21:06:00.015Z,57.08
2022-10-30T21:08:31.744Z,55.50
2022-10-30T21:11:03.123Z,57.75
2022-10-30T21:13:30.212Z,57.55
2022-10-30T21:16:01.822Z,55.88
2022-10-30T21:18:28.646Z,58.83
2022-10-30T21:21:00.544Z,56.05
2022-10-30T21:23:27.457Z,59.28
2022-10-30T21:25:59.908Z,59.20
2022-10-30T21:28:26.686Z,56.65
2022-10-30T21:30:53.448Z,55.08
2022-10-30T21:33:20.265Z,54.05
2022-10-30T21:35:47.048Z,55.15
2022-10-30T21:38:13.848Z,52.92
2022-10-30T21:40:40.604Z,52.83
2022-10-30T21:43:07.743Z,54.92
2022-10-30T21:45:36.717Z,52.83
2022-10-30T21:48:03.601Z,52.08
2022-10-30T21:50:30.351Z,54.75
2022-10-30T21:52:57.378Z,53.00
2022-10-30T21:55:24.411Z,50.50
2022-10-30T21:57:51.236Z,49.33
2022-10-30T22:00:18.216Z,43.63
2022-10-30T22:02:45.028Z,46.90
2022-10-30T22:05:11.800Z,48.65
2022-10-30T22:07:38.606Z,48.05
2022-10-30T22:10:06.081Z,49.40
2022-10-30T22:12:32.926Z,47.40
2022-10-30T22:14:59.759Z,46.72
2022-10-30T22:17:30.675Z,47.13
2022-10-30T22:20:00.673Z,46.70
2022-10-30T22:22:29.003Z,44.67
2022-10-30T22:24:55.775Z,43.50
2022-10-30T22:27:22.548Z,45.30
2022-10-30T22:29:49.296Z,46.10
2022-10-30T22:32:16.089Z,46.88
2022-10-30T22:34:42.819Z,46.97
2022-10-30T22:37:09.571Z,49.28
2022-10-30T22:39:36.339Z,47.77
2022-10-30T22:42:03.088Z,49.87
2022-10-30T22:44:29.872Z,49.83
2022-10-30T22:46:56.630Z,48.83
2022-10-30T22:49:23.402Z,52.10
2022-10-30T22:51:50.164Z,47.17
2022-10-30T22:54:16.961Z,52.05
2022-10-30T22:56:43.742Z,54.00
2022-10-30T22:59:12.972Z,55.53
2022-10-30T23:01:40.904Z,55.80
2022-10-30T23:04:11.053Z,57.35
2022-10-30T23:06:38.257Z,55.72
2022-10-30T23:09:08.539Z,53.30
2022-10-30T23:11:35.442Z,55.70
2022-10-30T23:14:02.232Z,54.20
2022-10-30T23:16:29.364Z,53.85
2022-10-30T23:18:58.677Z,54.00
2022-10-30T23:21:28.339Z,54.25
2022-10-30T23:23:55.929Z,54.80
2022-10-30T23:26:28.893Z,54.03
2022-10-30T23:28:57.015Z,58.83
2022-10-30T23:31:27.540Z,56.65
2022-10-30T23:33:57.575Z,56.88
2022-10-30T23:36:25.313Z,57.67
2022-10-30T23:38:55.781Z,59.90
2022-10-30T23:41:24.995Z,57.30
2022-10-30T23:43:57.086Z,58.85
2022-10-30T23:46:24.061Z,58.13
2022-10-30T23:48:50.839Z,58.75
2022-10-30T23:51:18.539Z,60.53
2022-10-30T23:53:45.305Z,58.30
2022-10-30T23:56:12.595Z,60.05
2022-10-30T23:58:42.355Z,61.38
